sensor_id;sensor_type;location;lat;lon;timestamp;temperature;humidity
6468;DHT22;3267;48.794;9.928;2023-04-24T04:44:53;15.30;85.30
6468;DHT22;3267;48.794;9.928;2023-04-24T06:32:24;15.50;89.10
6468;DHT22;3267;48.794;9.928;2023-04-24T06:37:20;15.00;87.80
6468;DHT22;3267;48.794;9.928;2023-04-24T06:47:10;15.00;88.60
6468;DHT22;3267;48.794;9.928;2023-04-24T06:49:36;14.90;87.90
6468;DHT22;3267;48.794;9.928;2023-04-24T07:43:19;15.40;86.10
6468;DHT22;3267;48.794;9.928;2023-04-24T07:48:11;15.70;86.50
6468;DHT22;3267;48.794;9.928;2023-04-24T08:17:34;16.20;90.80
6468;DHT22;3267;48.794;9.928;2023-04-24T08:49:24;17.10;93.80
6468;DHT22;3267;48.794;9.928;2023-04-24T08:54:17;17.00;94.70
6468;DHT22;3267;48.794;9.928;2023-04-24T08:56:44;16.80;93.20
6468;DHT22;3267;48.794;9.928;2023-04-24T09:28:36;16.50;90.00
6468;DHT22;3267;48.794;9.928;2023-04-24T09:31:14;16.50;90.50
6468;DHT22;3267;48.794;9.928;2023-04-24T09:33:57;16.20;90.70
6468;DHT22;3267;48.794;9.928;2023-04-24T09:39:00;16.30;88.30
6468;DHT22;3267;48.794;9.928;2023-04-24T09:41:27;16.30;84.00
6468;DHT22;3267;48.794;9.928;2023-04-24T09:53:46;17.10;84.60
6468;DHT22;3267;48.794;9.928;2023-04-24T09:58:41;17.30;85.60
6468;DHT22;3267;48.794;9.928;2023-04-24T10:01:06;18.50;82.50
6468;DHT22;3267;48.794;9.928;2023-04-24T10:03:33;17.20;80.00
6468;DHT22;3267;48.794;9.928;2023-04-24T10:06:03;17.70;79.70
6468;DHT22;3267;48.794;9.928;2023-04-24T10:08:35;16.90;79.30
6468;DHT22;3267;48.794;9.928;2023-04-24T10:11:01;18.70;87.50
6468;DHT22;3267;48.794;9.928;2023-04-24T10:13:30;17.10;79.40
6468;DHT22;3267;48.794;9.928;2023-04-24T10:15:59;16.70;75.90
6468;DHT22;3267;48.794;9.928;2023-04-24T10:18:26;16.90;75.80
6468;DHT22;3267;48.794;9.928;2023-04-24T10:20:53;16.80;80.80
6468;DHT22;3267;48.794;9.928;2023-04-24T10:23:20;16.60;79.70
6468;DHT22;3267;48.794;9.928;2023-04-24T10:25:46;16.80;79.60
6468;DHT22;3267;48.794;9.928;2023-04-24T10:28:12;17.30;78.70
6468;DHT22;3267;48.794;9.928;2023-04-24T10:30:39;16.40;77.30
6468;DHT22;3267;48.794;9.928;2023-04-24T10:33:08;16.30;75.40
6468;DHT22;3267;48.794;9.928;2023-04-24T10:35:39;16.50;83.10
6468;DHT22;3267;48.794;9.928;2023-04-24T10:38:18;19.40;78.30
6468;DHT22;3267;48.794;9.928;2023-04-24T10:40:47;16.30;73.90
6468;DHT22;3267;48.794;9.928;2023-04-24T10:43:17;16.60;76.20
6468;DHT22;3267;48.794;9.928;2023-04-24T10:46:04;16.60;72.70
6468;DHT22;3267;48.794;9.928;2023-04-24T10:48:30;16.50;76.00
6468;DHT22;3267;48.794;9.928;2023-04-24T10:50:55;16.50;73.00
6468;DHT22;3267;48.794;9.928;2023-04-24T10:53:23;16.50;75.70
6468;DHT22;3267;48.794;9.928;2023-04-24T10:56:11;16.70;78.20
6468;DHT22;3267;48.794;9.928;2023-04-24T10:58:51;16.80;73.40
6468;DHT22;3267;48.794;9.928;2023-04-24T11:01:26;17.10;75.50
6468;DHT22;3267;48.794;9.928;2023-04-24T11:04:00;17.00;72.20
6468;DHT22;3267;48.794;9.928;2023-04-24T11:06:35;17.00;71.70
6468;DHT22;3267;48.794;9.928;2023-04-24T11:11:29;16.70;71.90
6468;DHT22;3267;48.794;9.928;2023-04-24T11:21:56;16.80;76.90
6468;DHT22;3267;48.794;9.928;2023-04-24T11:24:26;17.00;74.00
6468;DHT22;3267;48.794;9.928;2023-04-24T11:34:54;17.90;77.10
6468;DHT22;3267;48.794;9.928;2023-04-24T11:37:21;17.60;70.90
6468;DHT22;3267;48.794;9.928;2023-04-24T11:39:46;17.60;74.20
6468;DHT22;3267;48.794;9.928;2023-04-24T11:42:15;17.60;74.50
6468;DHT22;3267;48.794;9.928;2023-04-24T11:44:42;17.70;67.00
6468;DHT22;3267;48.794;9.928;2023-04-24T11:47:08;17.20;65.80
6468;DHT22;3267;48.794;9.928;2023-04-24T11:49:36;16.90;66.10
6468;DHT22;3267;48.794;9.928;2023-04-24T11:52:04;16.90;67.20
6468;DHT22;3267;48.794;9.928;2023-04-24T11:54:30;16.70;66.10
6468;DHT22;3267;48.794;9.928;2023-04-24T11:56:56;16.60;64.80
6468;DHT22;3267;48.794;9.928;2023-04-24T11:59:22;16.60;66.00
6468;DHT22;3267;48.794;9.928;2023-04-24T12:01:49;16.60;66.10
6468;DHT22;3267;48.794;9.928;2023-04-24T12:04:16;16.70;66.40
6468;DHT22;3267;48.794;9.928;2023-04-24T12:07:04;16.70;66.70
6468;DHT22;3267;48.794;9.928;2023-04-24T12:09:41;16.70;68.30
6468;DHT22;3267;48.794;9.928;2023-04-24T12:12:08;16.80;67.60
6468;DHT22;3267;48.794;9.928;2023-04-24T12:14:52;17.30;83.80
6468;DHT22;3267;48.794;9.928;2023-04-24T12:17:23;17.50;71.70
6468;DHT22;3267;48.794;9.928;2023-04-24T12:19:49;17.40;71.00
6468;DHT22;3267;48.794;9.928;2023-04-24T12:22:16;17.30;70.70
6468;DHT22;3267;48.794;9.928;2023-04-24T12:25:04;17.50;79.70
6468;DHT22;3267;48.794;9.928;2023-04-24T12:27:32;17.40;70.40
6468;DHT22;3267;48.794;9.928;2023-04-24T12:29:59;17.30;69.00
6468;DHT22;3267;48.794;9.928;2023-04-24T12:32:26;17.30;69.30
6468;DHT22;3267;48.794;9.928;2023-04-24T12:34:52;18.40;70.50
6468;DHT22;3267;48.794;9.928;2023-04-24T12:37:18;17.30;70.30
6468;DHT22;3267;48.794;9.928;2023-04-24T12:42:31;16.90;70.20
6468;DHT22;3267;48.794;9.928;2023-04-24T12:45:07;17.00;70.60
6468;DHT22;3267;48.794;9.928;2023-04-24T12:47:34;17.20;75.90
6468;DHT22;3267;48.794;9.928;2023-04-24T12:50:00;17.40;72.00
6468;DHT22;3267;48.794;9.928;2023-04-24T12:52:28;17.40;70.50
6468;DHT22;3267;48.794;9.928;2023-04-24T12:54:59;18.70;69.90
6468;DHT22;3267;48.794;9.928;2023-04-24T12:57:26;17.30;75.70
6468;DHT22;3267;48.794;9.928;2023-04-24T12:59:57;17.40;77.00
6468;DHT22;3267;48.794;9.928;2023-04-24T13:02:26;17.40;78.30
6468;DHT22;3267;48.794;9.928;2023-04-24T13:04:52;17.40;70.90
6468;DHT22;3267;48.794;9.928;2023-04-24T13:07:18;17.70;70.70
6468;DHT22;3267;48.794;9.928;2023-04-24T13:09:45;17.30;75.60
6468;DHT22;3267;48.794;9.928;2023-04-24T13:12:11;17.20;71.30
6468;DHT22;3267;48.794;9.928;2023-04-24T13:14:38;18.40;78.40
6468;DHT22;3267;48.794;9.928;2023-04-24T13:17:07;17.20;76.70
6468;DHT22;3267;48.794;9.928;2023-04-24T13:19:40;17.30;72.00
6468;DHT22;3267;48.794;9.928;2023-04-24T13:22:06;17.10;70.50
6468;DHT22;3267;48.794;9.928;2023-04-24T13:24:35;17.10;68.50
6468;DHT22;3267;48.794;9.928;2023-04-24T13:27:01;17.30;71.00
6468;DHT22;3267;48.794;9.928;2023-04-24T13:29:27;17.20;69.20
6468;DHT22;3267;48.794;9.928;2023-04-24T13:31:54;17.20;70.50
6468;DHT22;3267;48.794;9.928;2023-04-24T13:34:23;17.40;74.60
6468;DHT22;3267;48.794;9.928;2023-04-24T13:36:56;17.20;74.40
6468;DHT22;3267;48.794;9.928;2023-04-24T13:39:23;15.80;71.60
6468;DHT22;3267;48.794;9.928;2023-04-24T13:41:49;19.30;72.20
6468;DHT22;3267;48.794;9.928;2023-04-24T13:44:17;17.20;71.10
6468;DHT22;3267;48.794;9.928;2023-04-24T13:46:43;19.80;71.80
6468;DHT22;3267;48.794;9.928;2023-04-24T13:49:11;17.30;73.00
6468;DHT22;3267;48.794;9.928;2023-04-24T13:51:37;17.20;72.30
6468;DHT22;3267;48.794;9.928;2023-04-24T13:54:03;17.30;69.80
6468;DHT22;3267;48.794;9.928;2023-04-24T13:56:29;17.20;72.90
6468;DHT22;3267;48.794;9.928;2023-04-24T13:58:55;17.10;67.40
6468;DHT22;3267;48.794;9.928;2023-04-24T14:01:21;17.10;69.90
6468;DHT22;3267;48.794;9.928;2023-04-24T14:03:53;17.00;70.40
6468;DHT22;3267;48.794;9.928;2023-04-24T14:06:19;17.10;70.90
6468;DHT22;3267;48.794;9.928;2023-04-24T14:08:49;17.00;70.30
6468;DHT22;3267;48.794;9.928;2023-04-24T14:11:16;17.30;69.60
6468;DHT22;3267;48.794;9.928;2023-04-24T14:13:42;16.80;67.80
6468;DHT22;3267;48.794;9.928;2023-04-24T14:16:07;16.70;66.90
6468;DHT22;3267;48.794;9.928;2023-04-24T14:18:33;16.40;69.50
6468;DHT22;3267;48.794;9.928;2023-04-24T14:20:59;16.30;68.00
6468;DHT22;3267;48.794;9.928;2023-04-24T14:23:29;16.40;71.10
6468;DHT22;3267;48.794;9.928;2023-04-24T14:25:56;16.80;76.20
6468;DHT22;3267;48.794;9.928;2023-04-24T14:28:22;16.60;70.40
6468;DHT22;3267;48.794;9.928;2023-04-24T14:30:48;16.50;71.00
6468;DHT22;3267;48.794;9.928;2023-04-24T14:33:14;16.60;70.90
6468;DHT22;3267;48.794;9.928;2023-04-24T14:35:40;16.80;70.40
6468;DHT22;3267;48.794;9.928;2023-04-24T14:38:07;17.30;72.40
6468;DHT22;3267;48.794;9.928;2023-04-24T14:40:33;17.60;71.10
6468;DHT22;3267;48.794;9.928;2023-04-24T14:42:59;17.90;71.00
6468;DHT22;3267;48.794;9.928;2023-04-24T14:45:25;18.20;70.00
6468;DHT22;3267;48.794;9.928;2023-04-24T14:47:51;18.20;68.90
6468;DHT22;3267;48.794;9.928;2023-04-24T14:50:18;18.00;67.50
6468;DHT22;3267;48.794;9.928;2023-04-24T14:52:43;17.80;66.90
6468;DHT22;3267;48.794;9.928;2023-04-24T14:55:09;17.60;68.70
6468;DHT22;3267;48.794;9.928;2023-04-24T14:57:35;19.90;71.10
6468;DHT22;3267;48.794;9.928;2023-04-24T15:00:02;17.40;68.60
6468;DHT22;3267;48.794;9.928;2023-04-24T15:02:30;17.60;75.70
6468;DHT22;3267;48.794;9.928;2023-04-24T15:04:56;17.40;70.70
6468;DHT22;3267;48.794;9.928;2023-04-24T15:07:21;16.90;70.40
6468;DHT22;3267;48.794;9.928;2023-04-24T15:09:47;16.80;73.70
6468;DHT22;3267;48.794;9.928;2023-04-24T15:12:13;16.70;75.00
6468;DHT22;3267;48.794;9.928;2023-04-24T15:14:41;17.30;72.80
6468;DHT22;3267;48.794;9.928;2023-04-24T15:17:10;16.50;73.50
6468;DHT22;3267;48.794;9.928;2023-04-24T15:19:36;16.80;72.80
6468;DHT22;3267;48.794;9.928;2023-04-24T15:22:01;16.30;72.00
6468;DHT22;3267;48.794;9.928;2023-04-24T15:24:27;16.10;70.40
6468;DHT22;3267;48.794;9.928;2023-04-24T15:26:53;16.20;71.30
6468;DHT22;3267;48.794;9.928;2023-04-24T15:29:19;16.20;71.10
6468;DHT22;3267;48.794;9.928;2023-04-24T15:31:44;16.60;72.90
6468;DHT22;3267;48.794;9.928;2023-04-24T15:34:10;16.90;70.30
6468;DHT22;3267;48.794;9.928;2023-04-24T15:36:36;17.00;69.20
6468;DHT22;3267;48.794;9.928;2023-04-24T15:39:02;17.00;68.40
6468;DHT22;3267;48.794;9.928;2023-04-24T15:41:28;17.10;72.90
6468;DHT22;3267;48.794;9.928;2023-04-24T15:43:53;17.20;71.30
6468;DHT22;3267;48.794;9.928;2023-04-24T15:46:19;17.20;71.20
6468;DHT22;3267;48.794;9.928;2023-04-24T15:48:45;17.80;74.20
6468;DHT22;3267;48.794;9.928;2023-04-24T15:51:10;17.00;69.40
6468;DHT22;3267;48.794;9.928;2023-04-24T15:53:36;17.00;70.00
6468;DHT22;3267;48.794;9.928;2023-04-24T15:56:02;16.80;69.70
6468;DHT22;3267;48.794;9.928;2023-04-24T15:58:28;17.00;75.30
6468;DHT22;3267;48.794;9.928;2023-04-24T16:00:53;17.10;70.50
6468;DHT22;3267;48.794;9.928;2023-04-24T16:03:19;18.80;73.00
6468;DHT22;3267;48.794;9.928;2023-04-24T16:05:45;17.10;72.80
6468;DHT22;3267;48.794;9.928;2023-04-24T16:08:11;17.20;68.70
6468;DHT22;3267;48.794;9.928;2023-04-24T16:10:38;17.10;69.00
6468;DHT22;3267;48.794;9.928;2023-04-24T16:13:04;17.70;68.80
6468;DHT22;3267;48.794;9.928;2023-04-24T16:15:30;16.90;67.60
6468;DHT22;3267;48.794;9.928;2023-04-24T16:17:56;16.90;68.60
6468;DHT22;3267;48.794;9.928;2023-04-24T16:20:22;16.80;67.80
6468;DHT22;3267;48.794;9.928;2023-04-24T16:22:48;16.80;68.40
6468;DHT22;3267;48.794;9.928;2023-04-24T16:25:14;16.70;67.50
6468;DHT22;3267;48.794;9.928;2023-04-24T16:27:39;16.60;68.70
6468;DHT22;3267;48.794;9.928;2023-04-24T16:30:06;16.40;67.30
6468;DHT22;3267;48.794;9.928;2023-04-24T16:32:31;16.50;70.00
6468;DHT22;3267;48.794;9.928;2023-04-24T16:34:57;16.40;68.70
6468;DHT22;3267;48.794;9.928;2023-04-24T16:37:23;16.30;69.00
6468;DHT22;3267;48.794;9.928;2023-04-24T16:39:49;16.20;67.40
6468;DHT22;3267;48.794;9.928;2023-04-24T16:42:15;16.10;67.10
6468;DHT22;3267;48.794;9.928;2023-04-24T16:44:41;16.30;68.50
6468;DHT22;3267;48.794;9.928;2023-04-24T16:47:10;15.90;71.40
6468;DHT22;3267;48.794;9.928;2023-04-24T16:49:38;16.20;68.40
6468;DHT22;3267;48.794;9.928;2023-04-24T16:52:04;16.10;69.80
6468;DHT22;3267;48.794;9.928;2023-04-24T16:54:33;16.20;70.10
6468;DHT22;3267;48.794;9.928;2023-04-24T16:57:01;16.40;77.90
6468;DHT22;3267;48.794;9.928;2023-04-24T16:59:28;17.60;77.60
6468;DHT22;3267;48.794;9.928;2023-04-24T17:01:55;16.90;73.30
6468;DHT22;3267;48.794;9.928;2023-04-24T17:04:21;16.70;69.30
6468;DHT22;3267;48.794;9.928;2023-04-24T17:06:46;16.60;69.80
6468;DHT22;3267;48.794;9.928;2023-04-24T17:09:12;16.40;67.80
6468;DHT22;3267;48.794;9.928;2023-04-24T17:11:40;18.40;71.40
6468;DHT22;3267;48.794;9.928;2023-04-24T17:14:06;16.30;67.50
6468;DHT22;3267;48.794;9.928;2023-04-24T17:16:32;16.20;68.00
6468;DHT22;3267;48.794;9.928;2023-04-24T17:18:58;16.10;67.40
6468;DHT22;3267;48.794;9.928;2023-04-24T17:21:25;16.00;67.00
6468;DHT22;3267;48.794;9.928;2023-04-24T17:23:51;16.00;66.60
6468;DHT22;3267;48.794;9.928;2023-04-24T17:26:16;15.90;67.70
6468;DHT22;3267;48.794;9.928;2023-04-24T17:28:42;16.00;68.00
6468;DHT22;3267;48.794;9.928;2023-04-24T17:31:07;16.50;69.40
6468;DHT22;3267;48.794;9.928;2023-04-24T17:33:34;17.20;68.40
6468;DHT22;3267;48.794;9.928;2023-04-24T17:36:00;15.90;68.10
6468;DHT22;3267;48.794;9.928;2023-04-24T17:38:35;15.80;67.10
6468;DHT22;3267;48.794;9.928;2023-04-24T17:41:03;15.80;67.40
6468;DHT22;3267;48.794;9.928;2023-04-24T17:43:29;15.90;66.90
6468;DHT22;3267;48.794;9.928;2023-04-24T17:45:55;15.80;66.40
6468;DHT22;3267;48.794;9.928;2023-04-24T17:48:21;17.00;68.80
6468;DHT22;3267;48.794;9.928;2023-04-24T17:50:50;15.80;66.80
6468;DHT22;3267;48.794;9.928;2023-04-24T17:53:16;15.70;66.40
6468;DHT22;3267;48.794;9.928;2023-04-24T17:55:43;15.70;66.30
6468;DHT22;3267;48.794;9.928;2023-04-24T17:58:11;17.20;67.60
6468;DHT22;3267;48.794;9.928;2023-04-24T18:00:37;15.60;66.40
6468;DHT22;3267;48.794;9.928;2023-04-24T18:03:03;15.40;66.10
6468;DHT22;3267;48.794;9.928;2023-04-24T18:05:30;15.30;66.00
6468;DHT22;3267;48.794;9.928;2023-04-24T18:07:58;15.30;66.00
6468;DHT22;3267;48.794;9.928;2023-04-24T18:10:25;15.20;65.80
6468;DHT22;3267;48.794;9.928;2023-04-24T18:12:51;15.30;68.30
6468;DHT22;3267;48.794;9.928;2023-04-24T18:15:17;15.10;65.70
6468;DHT22;3267;48.794;9.928;2023-04-24T18:17:43;15.10;65.60
6468;DHT22;3267;48.794;9.928;2023-04-24T18:20:11;14.90;66.30
6468;DHT22;3267;48.794;9.928;2023-04-24T18:22:37;16.20;67.70
6468;DHT22;3267;48.794;9.928;2023-04-24T18:25:08;14.70;65.60
6468;DHT22;3267;48.794;9.928;2023-04-24T18:27:34;14.60;65.60
6468;DHT22;3267;48.794;9.928;2023-04-24T18:30:00;14.60;66.20
6468;DHT22;3267;48.794;9.928;2023-04-24T18:32:27;15.00;67.90
6468;DHT22;3267;48.794;9.928;2023-04-24T18:34:53;14.50;65.90
6468;DHT22;3267;48.794;9.928;2023-04-24T18:37:18;14.40;65.70
6468;DHT22;3267;48.794;9.928;2023-04-24T18:39:44;14.40;66.20
6468;DHT22;3267;48.794;9.928;2023-04-24T18:42:15;14.40;66.80
6468;DHT22;3267;48.794;9.928;2023-04-24T18:44:41;14.30;66.30
6468;DHT22;3267;48.794;9.928;2023-04-24T18:47:08;14.40;66.40
6468;DHT22;3267;48.794;9.928;2023-04-24T18:49:34;14.30;65.70
6468;DHT22;3267;48.794;9.928;2023-04-24T18:52:00;14.30;66.20
6468;DHT22;3267;48.794;9.928;2023-04-24T18:54:25;14.20;65.90
6468;DHT22;3267;48.794;9.928;2023-04-24T18:56:51;14.20;65.80
6468;DHT22;3267;48.794;9.928;2023-04-24T18:59:18;14.40;66.10
6468;DHT22;3267;48.794;9.928;2023-04-24T19:01:44;14.30;68.20
6468;DHT22;3267;48.794;9.928;2023-04-24T19:04:09;14.50;68.60
6468;DHT22;3267;48.794;9.928;2023-04-24T19:06:35;14.90;69.00
6468;DHT22;3267;48.794;9.928;2023-04-24T19:09:04;14.30;67.10
6468;DHT22;3267;48.794;9.928;2023-04-24T19:11:30;14.30;67.10
6468;DHT22;3267;48.794;9.928;2023-04-24T19:13:56;14.30;66.80
6468;DHT22;3267;48.794;9.928;2023-04-24T19:16:25;14.30;68.30
6468;DHT22;3267;48.794;9.928;2023-04-24T19:18:50;14.20;66.50
6468;DHT22;3267;48.794;9.928;2023-04-24T19:21:16;14.20;66.50
6468;DHT22;3267;48.794;9.928;2023-04-24T19:23:41;14.10;67.70
6468;DHT22;3267;48.794;9.928;2023-04-24T19:26:11;14.30;67.90
6468;DHT22;3267;48.794;9.928;2023-04-24T19:28:38;14.20;65.90
6468;DHT22;3267;48.794;9.928;2023-04-24T19:31:04;14.10;66.60
6468;DHT22;3267;48.794;9.928;2023-04-24T19:33:30;14.10;66.20
6468;DHT22;3267;48.794;9.928;2023-04-24T19:35:56;14.10;66.10
6468;DHT22;3267;48.794;9.928;2023-04-24T19:38:22;14.10;66.00
6468;DHT22;3267;48.794;9.928;2023-04-24T19:40:47;14.00;66.20
6468;DHT22;3267;48.794;9.928;2023-04-24T19:43:13;14.30;68.80
6468;DHT22;3267;48.794;9.928;2023-04-24T19:45:39;14.10;65.80
6468;DHT22;3267;48.794;9.928;2023-04-24T19:48:05;14.30;67.60
6468;DHT22;3267;48.794;9.928;2023-04-24T19:50:30;14.20;67.50
6468;DHT22;3267;48.794;9.928;2023-04-24T19:52:56;14.40;65.40
6468;DHT22;3267;48.794;9.928;2023-04-24T19:55:22;14.30;68.10
6468;DHT22;3267;48.794;9.928;2023-04-24T19:57:51;14.20;66.10
6468;DHT22;3267;48.794;9.928;2023-04-24T20:00:16;14.00;65.30
6468;DHT22;3267;48.794;9.928;2023-04-24T20:02:42;14.30;68.10
6468;DHT22;3267;48.794;9.928;2023-04-24T20:05:08;14.20;68.30
6468;DHT22;3267;48.794;9.928;2023-04-24T20:07:34;14.10;66.70
6468;DHT22;3267;48.794;9.928;2023-04-24T20:09:59;14.00;65.90
6468;DHT22;3267;48.794;9.928;2023-04-24T20:12:25;13.90;65.80
6468;DHT22;3267;48.794;9.928;2023-04-24T20:14:51;13.80;65.60
6468;DHT22;3267;48.794;9.928;2023-04-24T20:17:17;13.70;65.00
6468;DHT22;3267;48.794;9.928;2023-04-24T20:19:48;13.70;67.20
6468;DHT22;3267;48.794;9.928;2023-04-24T20:24:45;13.90;68.40
6468;DHT22;3267;48.794;9.928;2023-04-24T20:27:12;13.90;69.00
6468;DHT22;3267;48.794;9.928;2023-04-24T20:29:40;14.40;70.50
6468;DHT22;3267;48.794;9.928;2023-04-24T20:32:06;14.10;70.40
6468;DHT22;3267;48.794;9.928;2023-04-24T20:34:33;14.50;74.30
6468;DHT22;3267;48.794;9.928;2023-04-24T20:39:25;14.80;76.20
6468;DHT22;3267;48.794;9.928;2023-04-24T20:41:51;15.30;88.30
6468;DHT22;3267;48.794;9.928;2023-04-24T20:44:16;15.10;77.40
6468;DHT22;3267;48.794;9.928;2023-04-24T20:46:42;15.50;81.00
6468;DHT22;3267;48.794;9.928;2023-04-24T20:49:08;15.40;81.30
6468;DHT22;3267;48.794;9.928;2023-04-24T20:51:33;15.40;76.50
6468;DHT22;3267;48.794;9.928;2023-04-24T20:53:59;16.60;85.70
6468;DHT22;3267;48.794;9.928;2023-04-24T20:56:25;15.40;76.60
6468;DHT22;3267;48.794;9.928;2023-04-24T20:58:51;15.10;75.80
6468;DHT22;3267;48.794;9.928;2023-04-24T21:01:16;14.60;77.80
6468;DHT22;3267;48.794;9.928;2023-04-24T21:03:42;14.80;78.90
6468;DHT22;3267;48.794;9.928;2023-04-24T21:06:11;15.90;73.80
6468;DHT22;3267;48.794;9.928;2023-04-24T21:08:37;14.30;76.90
6468;DHT22;3267;48.794;9.928;2023-04-24T21:11:03;14.50;74.30
6468;DHT22;3267;48.794;9.928;2023-04-24T21:13:29;14.30;72.00
6468;DHT22;3267;48.794;9.928;2023-04-24T21:15:55;14.20;74.60
6468;DHT22;3267;48.794;9.928;2023-04-24T21:18:20;14.10;72.50
6468;DHT22;3267;48.794;9.928;2023-04-24T21:20:46;14.20;76.30
6468;DHT22;3267;48.794;9.928;2023-04-24T21:23:11;14.10;74.30
6468;DHT22;3267;48.794;9.928;2023-04-24T21:25:37;14.00;73.10
6468;DHT22;3267;48.794;9.928;2023-04-24T21:28:03;14.00;74.10
